Time;durP1;ratioP1;P1;durP2;ratioP2;P2;SDS_P1;SDS_P2;PMS_P1;PMS_P2;Temp;Humidity;BMP_temperature;BMP_pressure;BME280_temperature;BME280_humidity;BME280_pressure;Samples;Min_cycle;Max_cycle;Signal;HPM_P1;HPM_P2
2023/07/17 00:00:15;;;;;;;0.47;0.47;;;;;;;25.85;60.57;99591.88;4332537;33;20099;-96
2023/07/17 00:02:41;;;;;;;0.85;0.65;;;;;;;26.04;60.59;99587.41;4325655;33;20076;-96
2023/07/17 00:05:07;;;;;;;0.47;0.40;;;;;;;26.04;60.59;99585.56;4321359;33;20130;-96
2023/07/17 00:07:33;;;;;;;0.73;0.68;;;;;;;26.04;60.58;99587.41;4315917;33;20148;-96
2023/07/17 00:10:00;;;;;;;0.50;0.50;;;;;;;25.90;60.58;99596.75;4316216;33;20126;-96
2023/07/17 00:12:26;;;;;;;0.65;0.65;;;;;;;26.03;60.58;99591.88;4338362;33;20076;-96
2023/07/17 00:14:52;;;;;;;0.28;0.28;;;;;;;25.92;60.57;99592.94;4304702;33;219958;-96
2023/07/17 00:17:20;;;;;;;0.40;0.32;;;;;;;25.84;60.57;99598.19;4323654;33;20095;-96
2023/07/17 00:19:55;;;;;;;0.73;0.45;;;;;;;25.77;60.56;99599.75;4311406;33;20167;-96
2023/07/17 00:22:21;;;;;;;0.30;0.30;;;;;;;25.94;60.58;99604.28;4323409;33;20119;-96
2023/07/17 00:24:47;;;;;;;0.73;0.73;;;;;;;25.78;60.57;99601.44;4335609;33;20111;-96
2023/07/17 00:27:12;;;;;;;1.27;0.37;;;;;;;26.05;60.58;99602.41;4310840;33;20398;-96
2023/07/17 00:29:40;;;;;;;0.85;0.85;;;;;;;26.24;60.59;99604.91;4323240;33;20146;-96
2023/07/17 00:32:06;;;;;;;0.80;0.80;;;;;;;26.15;60.59;99605.81;4311887;33;20527;-96
2023/07/17 00:34:31;;;;;;;3.00;1.62;;;;;;;26.01;60.57;99599.16;4311389;33;20120;-96
2023/07/17 00:36:57;;;;;;;0.88;0.62;;;;;;;25.94;60.58;99598.94;4310988;33;20107;-96
2023/07/17 00:39:23;;;;;;;0.47;0.47;;;;;;;25.93;60.57;99601.75;4323821;33;20158;-96
2023/07/17 00:41:49;;;;;;;0.85;0.85;;;;;;;25.82;60.57;99608.16;4325016;33;20098;-96
2023/07/17 00:44:15;;;;;;;0.88;0.50;;;;;;;25.53;60.55;99616.28;4324750;33;20124;-96
2023/07/17 00:46:42;;;;;;;1.87;1.25;;;;;;;25.53;60.55;99616.28;4312159;33;20183;-96
2023/07/17 00:49:08;;;;;;;1.33;1.02;;;;;;;25.51;60.55;99614.75;4312403;33;20119;-95
2023/07/17 00:51:34;;;;;;;0.25;0.25;;;;;;;25.45;60.55;99616.19;4313214;33;20152;-96
2023/07/17 00:53:59;;;;;;;6.20;1.25;;;;;;;25.45;60.55;99618.00;4312410;33;20385;-96
2023/07/17 00:56:25;;;;;;;0.88;0.82;;;;;;;25.40;60.55;99616.62;4312299;33;20130;-96
2023/07/17 00:58:51;;;;;;;6.62;2.15;;;;;;;25.65;60.56;99608.94;4324102;33;20110;-96
2023/07/17 01:01:16;;;;;;;0.82;0.82;;;;;;;25.55;60.56;99609.00;4311958;33;20115;-96
2023/07/17 01:03:50;;;;;;;0.28;0.28;;;;;;;25.55;60.56;99609.00;4312125;33;20121;-96
2023/07/17 01:06:15;;;;;;;0.73;0.73;;;;;;;25.61;60.56;99610.22;4312431;33;20064;-96
2023/07/17 01:08:41;;;;;;;0.57;0.57;;;;;;;25.52;60.55;99609.25;4312974;33;20151;-96
2023/07/17 01:11:06;;;;;;;0.90;0.90;;;;;;;25.44;60.54;99611.00;4312504;33;20142;-96
2023/07/17 01:13:44;;;;;;;1.60;1.50;;;;;;;25.59;60.56;99615.69;4324863;33;20096;-96
2023/07/17 01:16:10;;;;;;;1.35;0.90;;;;;;;25.55;60.56;99606.31;4312018;33;20177;-96
2023/07/17 01:18:35;;;;;;;1.40;0.93;;;;;;;25.51;60.55;99601.41;4311472;33;20100;-96
2023/07/17 01:21:01;;;;;;;1.15;1.08;;;;;;;25.57;60.56;99604.34;4311691;33;20119;-96
2023/07/17 01:23:27;;;;;;;1.30;0.82;;;;;;;25.53;60.55;99599.44;4323930;33;20103;-96
2023/07/17 01:25:54;;;;;;;1.60;0.25;;;;;;;25.46;60.56;99599.19;4313681;33;20216;-96
2023/07/17 01:28:20;;;;;;;0.17;0.17;;;;;;;25.40;60.55;99605.13;4325703;33;20162;-96
2023/07/17 01:30:45;;;;;;;1.48;1.37;;;;;;;25.52;60.55;99600.41;4313920;33;20182;-96
2023/07/17 01:33:12;;;;;;;0.93;0.80;;;;;;;25.40;60.55;99592.62;4323298;33;20095;-96
2023/07/17 01:35:37;;;;;;;0.52;0.52;;;;;;;25.38;60.54;99589.28;4321889;33;20082;-96
2023/07/17 01:38:03;;;;;;;1.50;1.08;;;;;;;25.31;60.55;99590.00;4311812;33;20104;-96
2023/07/17 01:40:28;;;;;;;0.30;0.30;;;;;;;25.22;60.54;99599.72;4311297;33;20139;-96
2023/07/17 01:42:54;;;;;;;0.50;0.50;;;;;;;25.11;60.54;99588.44;4323762;33;20125;-96
2023/07/17 01:45:19;;;;;;;0.80;0.80;;;;;;;25.37;60.54;99594.75;4311216;33;20100;-96
2023/07/17 01:47:45;;;;;;;2.45;1.23;;;;;;;25.26;60.54;99594.94;4311400;33;20158;-96
2023/07/17 01:50:11;;;;;;;1.65;1.30;;;;;;;25.22;60.54;99597.06;4323652;33;20104;-96
2023/07/17 01:52:37;;;;;;;0.37;0.37;;;;;;;24.96;60.53;99588.84;4311286;33;20146;-96
2023/07/17 01:55:02;;;;;;;0.22;0.22;;;;;;;24.91;60.52;99600.91;4311138;33;20146;-96
2023/07/17 01:57:30;;;;;;;0.85;0.85;;;;;;;25.04;60.53;99596.13;4311191;33;20158;-96
2023/07/17 01:59:55;;;;;;;1.15;1.08;;;;;;;25.02;60.53;99598.94;4310887;33;20115;-96
2023/07/17 02:02:21;;;;;;;0.32;0.28;;;;;;;24.98;60.52;99608.19;4311183;33;20334;-96
2023/07/17 02:04:47;;;;;;;0.45;0.45;;;;;;;24.90;60.52;99609.91;4312366;33;20155;-96
2023/07/17 02:07:13;;;;;;;0.88;0.52;;;;;;;25.02;60.53;99616.75;4311464;33;20180;-96
2023/07/17 02:09:39;;;;;;;0.35;0.35;;;;;;;24.91;60.52;99615.06;4311023;33;20766;-96
2023/07/17 02:12:05;;;;;;;0.98;0.95;;;;;;;24.94;60.52;99617.44;4310645;33;20170;-96
2023/07/17 02:14:30;;;;;;;2.90;1.35;;;;;;;24.97;60.52;99629.63;4310819;33;20126;-96
2023/07/17 02:16:57;;;;;;;1.40;1.30;;;;;;;24.99;60.53;99630.34;4323261;33;20134;-96
2023/07/17 02:19:23;;;;;;;1.25;1.15;;;;;;;24.89;60.52;99632.19;4310835;33;20138;-96
2023/07/17 02:21:48;;;;;;;1.55;0.90;;;;;;;25.06;60.52;99634.94;4310823;33;20128;-96
2023/07/17 02:24:14;;;;;;;0.75;0.75;;;;;;;25.27;60.54;99632.09;4323112;33;20087;-96
2023/07/17 02:26:39;;;;;;;2.03;1.02;;;;;;;25.08;60.53;99640.16;4310565;33;20095;-96
2023/07/17 02:29:06;;;;;;;1.73;0.93;;;;;;;24.85;60.52;99644.94;4310887;33;20358;-96
2023/07/17 02:31:31;;;;;;;2.58;1.67;;;;;;;24.90;60.52;99649.84;4310369;33;20130;-96
2023/07/17 02:33:57;;;;;;;0.70;0.70;;;;;;;25.08;60.53;99650.81;4310530;33;20100;-96
2023/07/17 02:36:22;;;;;;;0.90;0.90;;;;;;;24.90;60.52;99657.81;4310486;33;20111;-96
2023/07/17 02:38:48;;;;;;;0.45;0.45;;;;;;;24.86;60.52;99670.59;4310471;33;20146;-96
2023/07/17 02:41:31;;;;;;;3.60;2.35;;;;;;;24.59;60.50;99665.94;4322638;33;20103;-96
2023/07/17 02:44:09;;;;;;;0.55;0.55;;;;;;;24.79;60.51;99678.28;4310085;33;20115;-96
2023/07/17 02:46:43;;;;;;;0.73;0.70;;;;;;;25.00;60.53;99677.31;4321959;33;20108;-96
2023/07/17 02:49:11;;;;;;;0.62;0.62;;;;;;;24.93;60.52;99682.34;4309773;33;20067;-96
2023/07/17 02:51:37;;;;;;;0.85;0.82;;;;;;;24.98;60.53;99673.91;4310996;33;20123;-96
2023/07/17 02:54:16;;;;;;;;;;;;;;;;;;;;;
2023/07/17 02:56:41;;;;;;;1.17;0.70;;;;;;;24.70;60.51;99675.63;4323463;33;36374;-96
2023/07/17 02:59:07;;;;;;;0.70;0.70;;;;;;;24.42;60.49;99674.66;4311404;33;20141;-96
2023/07/17 03:01:35;;;;;;;1.17;0.95;;;;;;;24.47;60.50;99669.75;4312994;33;20166;-96
2023/07/17 03:04:01;;;;;;;0.43;0.40;;;;;;;24.61;60.51;99671.16;4320757;33;20139;-96
2023/07/17 03:06:26;;;;;;;2.60;2.40;;;;;;;24.70;60.51;99671.16;4322138;33;20159;-96
2023/07/17 03:08:52;;;;;;;0.37;0.37;;;;;;;24.85;60.52;99674.22;4311152;33;20135;-96
2023/07/17 03:11:17;;;;;;;0.60;0.60;;;;;;;24.66;60.51;99671.56;4310229;33;20115;-96
2023/07/17 03:13:44;;;;;;;0.62;0.62;;;;;;;24.63;60.50;99672.69;4310022;33;20184;-96
2023/07/17 03:16:25;;;;;;;0.77;0.77;;;;;;;24.64;60.51;99668.22;4310239;33;20130;-96
2023/07/17 03:19:00;;;;;;;2.97;1.90;;;;;;;24.59;60.50;99675.75;4309589;33;20136;-96
2023/07/17 03:21:26;;;;;;;0.43;0.43;;;;;;;24.81;60.51;99672.81;4309462;33;20123;-95
2023/07/17 03:23:51;;;;;;;0.30;0.28;;;;;;;24.79;60.52;99669.44;4309444;33;20099;-96
2023/07/17 03:26:17;;;;;;;1.98;1.83;;;;;;;24.52;60.50;99661.34;4310925;33;20104;-96
2023/07/17 03:28:45;;;;;;;0.20;0.20;;;;;;;24.50;60.50;99674.78;4310931;33;20103;-96
2023/07/17 03:31:10;;;;;;;0.85;0.50;;;;;;;24.52;60.51;99678.16;4323277;33;20186;-96
2023/07/17 03:33:36;;;;;;;0.85;0.62;;;;;;;24.71;60.51;99670.16;4311088;33;20401;-96
2023/07/17 03:36:01;;;;;;;0.62;0.50;;;;;;;24.56;60.50;99668.91;4311023;33;20509;-96
2023/07/17 03:38:27;;;;;;;0.37;0.37;;;;;;;24.77;60.52;99666.94;4323200;33;20490;-95
2023/07/17 03:40:52;;;;;;;0.40;0.40;;;;;;;24.54;60.50;99668.19;4311583;33;20133;-96
2023/07/17 03:43:17;;;;;;;1.90;0.90;;;;;;;24.63;60.50;99662.06;4323142;33;20121;-96
2023/07/17 03:45:43;;;;;;;0.60;0.60;;;;;;;24.80;60.51;99666.63;4311112;33;20123;-95
2023/07/17 03:48:08;;;;;;;0.77;0.77;;;;;;;24.84;60.53;99669.00;4311005;33;20127;-96
2023/07/17 03:50:35;;;;;;;2.90;1.08;;;;;;;24.94;60.52;99667.19;4310842;33;20155;-96
2023/07/17 03:53:00;;;;;;;0.77;0.73;;;;;;;25.28;60.54;99662.22;4323111;33;20460;-96
2023/07/17 03:55:26;;;;;;;1.48;1.15;;;;;;;25.14;60.54;99658.22;4311114;33;20147;-96
2023/07/17 03:57:51;;;;;;;0.17;0.17;;;;;;;25.38;60.54;99666.56;4311522;33;20108;-96
2023/07/17 04:00:17;;;;;;;1.20;1.10;;;;;;;25.39;60.54;99659.41;4311303;33;20107;-96
2023/07/17 04:02:42;;;;;;;0.70;0.65;;;;;;;25.30;60.54;99669.09;4310783;33;20096;-96
2023/07/17 04:05:08;;;;;;;0.50;0.50;;;;;;;25.49;60.56;99662.03;4310888;33;20100;-96
2023/07/17 04:07:33;;;;;;;0.20;0.20;;;;;;;25.62;60.56;99660.72;4311016;33;20135;-96
2023/07/17 04:09:59;;;;;;;0.98;0.98;;;;;;;25.60;60.55;99661.84;4310851;33;20108;-96
2023/07/17 04:12:24;;;;;;;1.65;0.55;;;;;;;25.63;60.56;99666.88;4322968;33;20126;-96
2023/07/17 04:14:50;;;;;;;0.30;0.30;;;;;;;25.74;60.56;99663.22;4311004;33;20091;-96
2023/07/17 04:17:15;;;;;;;2.20;1.85;;;;;;;25.76;60.55;99659.41;4311368;33;20114;-96
2023/07/17 04:19:41;;;;;;;1.17;1.00;;;;;;;25.93;60.58;99663.94;4310958;33;20104;-96
2023/07/17 04:22:06;;;;;;;1.17;0.50;;;;;;;26.14;60.58;99657.50;4323085;33;20125;-96
2023/07/17 04:24:32;;;;;;;0.68;0.62;;;;;;;26.23;60.58;99656.59;4311191;33;20121;-96
2023/07/17 04:26:57;;;;;;;0.25;0.25;;;;;;;26.17;60.58;99659.88;4311457;33;20141;-96
2023/07/17 04:29:22;;;;;;;0.93;0.93;;;;;;;26.24;60.58;99659.09;4311733;33;20149;-96
2023/07/17 04:31:48;;;;;;;0.47;0.47;;;;;;;26.34;60.59;99661.75;4313341;33;20562;-96
2023/07/17 04:34:14;;;;;;;0.60;0.47;;;;;;;26.44;60.60;99659.84;4330491;33;20091;-96
2023/07/17 04:36:40;;;;;;;0.50;0.50;;;;;;;26.61;60.60;99658.16;4336482;33;20095;-96
2023/07/17 04:39:05;;;;;;;0.70;0.70;;;;;;;26.60;60.60;99665.34;4328025;33;20111;-96
2023/07/17 04:41:31;;;;;;;1.12;0.77;;;;;;;26.75;60.61;99670.97;4310732;33;20487;-96
2023/07/17 04:43:56;;;;;;;1.60;0.88;;;;;;;26.75;60.61;99662.97;4310884;33;20099;-96
2023/07/17 04:46:23;;;;;;;1.98;1.10;;;;;;;26.77;60.61;99660.97;4310579;33;20139;-96
2023/07/17 04:48:48;;;;;;;0.52;0.52;;;;;;;26.93;60.62;99665.59;4310746;33;20187;-96
2023/07/17 04:51:14;;;;;;;1.17;1.08;;;;;;;27.23;60.63;99667.00;4310449;33;20099;-96
2023/07/17 04:53:39;;;;;;;1.05;0.75;;;;;;;27.16;60.63;99658.75;4310356;33;20140;-96
2023/07/17 04:56:05;;;;;;;0.85;0.85;;;;;;;27.23;60.64;99658.16;4310535;33;20107;-96
2023/07/17 04:58:32;;;;;;;0.40;0.40;;;;;;;27.32;60.64;99659.88;4310584;33;20610;-96
2023/07/17 05:00:58;;;;;;;0.28;0.28;;;;;;;27.51;60.66;99665.00;4310709;33;20115;-96
2023/07/17 05:03:24;;;;;;;1.12;1.02;;;;;;;27.57;60.65;99664.34;4322539;33;20128;-96
2023/07/17 05:05:53;;;;;;;2.80;1.12;;;;;;;27.74;60.65;99666.13;4310240;33;20429;-96
2023/07/17 05:08:18;;;;;;;1.02;1.02;;;;;;;28.05;60.68;99660.22;4310314;33;20465;-96
2023/07/17 05:10:44;;;;;;;0.20;0.20;;;;;;;28.06;60.67;99664.56;4310296;33;20130;-96
2023/07/17 05:13:09;;;;;;;1.30;1.20;;;;;;;28.10;60.68;99661.38;4310425;33;20100;-96
2023/07/17 05:15:34;;;;;;;1.45;1.35;;;;;;;28.24;60.69;99667.97;4310175;33;20160;-96
2023/07/17 05:18:00;;;;;;;1.15;1.05;;;;;;;28.48;60.70;99667.19;4310124;33;20141;-96
2023/07/17 05:20:25;;;;;;;0.77;0.77;;;;;;;28.59;60.70;99666.00;4310310;33;20121;-96
2023/07/17 05:22:51;;;;;;;1.27;0.68;;;;;;;28.55;60.70;99654.81;4310289;33;20175;-96
2023/07/17 05:25:16;;;;;;;1.12;1.02;;;;;;;28.71;60.71;99656.66;4322502;33;20138;-96
2023/07/17 05:27:42;;;;;;;0.70;0.70;;;;;;;28.89;60.72;99657.34;4310223;33;20148;-96
2023/07/17 05:30:07;;;;;;;0.77;0.77;;;;;;;28.91;60.72;99655.34;4322527;33;20397;-96
2023/07/17 05:32:33;;;;;;;4.50;0.80;;;;;;;29.13;60.73;99661.00;4310128;33;20100;-96
2023/07/17 05:34:58;;;;;;;1.23;1.12;;;;;;;29.22;60.73;99657.28;4310371;33;20454;-96
2023/07/17 05:37:24;;;;;;;0.82;0.73;;;;;;;29.21;60.73;99661.81;4310342;33;20422;-96
2023/07/17 05:39:49;;;;;;;1.12;1.08;;;;;;;29.38;60.74;99656.44;4322361;33;20191;-96
2023/07/17 05:42:15;;;;;;;0.73;0.47;;;;;;;29.49;60.75;99650.72;4310608;33;20115;-96
2023/07/17 05:44:40;;;;;;;2.83;1.98;;;;;;;29.74;60.75;99662.19;4310261;33;20175;-96
2023/07/17 05:47:06;;;;;;;0.62;0.55;;;;;;;29.82;60.77;99656.81;4321776;33;20133;-96
2023/07/17 05:49:31;;;;;;;0.65;0.50;;;;;;;29.81;60.76;99647.91;4310212;33;20121;-95
2023/07/17 05:51:57;;;;;;;0.50;0.50;;;;;;;29.83;60.77;99659.31;4310335;33;20469;-96
2023/07/17 05:54:22;;;;;;;0.45;0.45;;;;;;;29.90;60.78;99659.44;4310364;33;20119;-96
2023/07/17 05:56:48;;;;;;;0.35;0.35;;;;;;;30.05;60.77;99652.34;4310438;33;20134;-96
2023/07/17 05:59:13;;;;;;;0.20;0.20;;;;;;;30.21;60.79;99657.59;4310674;33;20087;-96
2023/07/17 06:01:39;;;;;;;1.02;0.85;;;;;;;30.37;60.79;99655.84;4323466;33;20440;-96
2023/07/17 06:04:04;;;;;;;0.30;0.30;;;;;;;30.62;60.81;99657.34;4325119;33;20108;-96
2023/07/17 06:06:30;;;;;;;0.32;0.28;;;;;;;30.70;60.81;99669.88;4323760;33;20098;-96
2023/07/17 06:08:59;;;;;;;1.90;1.02;;;;;;;30.76;60.81;99659.25;4330074;33;20113;-96
2023/07/17 06:11:25;;;;;;;0.93;0.68;;;;;;;31.10;60.83;99663.31;4321524;33;20130;-95
2023/07/17 06:13:50;;;;;;;3.95;2.08;;;;;;;31.06;60.83;99662.00;4321505;33;20124;-96
2023/07/17 06:16:15;;;;;;;6.75;1.17;;;;;;;31.09;60.82;99658.94;4308957;33;20124;-95
2023/07/17 06:18:41;;;;;;;0.20;0.20;;;;;;;31.34;60.84;99655.00;4321299;33;20129;-94
2023/07/17 06:21:06;;;;;;;0.45;0.45;;;;;;;31.45;60.84;99651.00;4308785;33;20145;-94
2023/07/17 06:23:32;;;;;;;0.10;0.10;;;;;;;31.29;60.84;99654.75;4308715;33;20124;-94
2023/07/17 06:25:57;;;;;;;0.98;0.75;;;;;;;31.44;60.85;99650.19;4320227;33;25902;-94
2023/07/17 06:28:23;;;;;;;0.20;0.20;;;;;;;31.43;60.85;99661.12;4332581;33;20145;-93
2023/07/17 06:30:48;;;;;;;0.17;0.17;;;;;;;31.65;60.85;99659.34;4320527;33;20112;-93
2023/07/17 06:33:13;;;;;;;2.65;1.17;;;;;;;31.70;60.87;99656.94;4308306;33;20171;-93
2023/07/17 06:35:39;;;;;;;2.08;1.85;;;;;;;32.07;60.88;99658.66;4308617;33;20447;-93
2023/07/17 06:38:04;;;;;;;2.58;1.35;;;;;;;32.24;60.89;99653.88;4332734;33;20091;-92
2023/07/17 06:40:30;;;;;;;0.60;0.60;;;;;;;32.33;60.90;99647.38;4308403;33;20126;-92
2023/07/17 06:42:56;;;;;;;0.88;0.88;;;;;;;32.34;60.89;99655.25;4308234;33;20497;-92
2023/07/17 06:45:22;;;;;;;5.53;2.37;;;;;;;32.19;60.88;99653.62;4320472;33;20119;-91
2023/07/17 06:47:48;;;;;;;4.72;0.60;;;;;;;32.34;60.89;99655.25;4319762;33;27368;-90
2023/07/17 06:50:13;;;;;;;0.82;0.50;;;;;;;32.71;60.92;99647.12;4320436;33;20154;-89
2023/07/17 06:52:39;;;;;;;0.20;0.20;;;;;;;32.81;60.92;99650.34;4320248;33;20144;-88
2023/07/17 06:55:07;;;;;;;0.45;0.45;;;;;;;33.01;60.92;99645.09;4332615;33;20462;-87
2023/07/17 06:57:32;;;;;;;0.93;0.85;;;;;;;33.25;60.94;99647.34;4333835;33;20156;-87
2023/07/17 06:59:58;;;;;;;0.55;0.52;;;;;;;33.55;60.96;99642.56;4333662;33;20083;-87
2023/07/17 07:02:23;;;;;;;0.57;0.57;;;;;;;33.68;60.96;99637.22;4320044;33;20147;-88
2023/07/17 07:04:48;;;;;;;0.37;0.37;;;;;;;33.95;60.97;99645.47;4333104;33;29005;-88
2023/07/17 07:07:14;;;;;;;0.50;0.50;;;;;;;33.96;60.97;99644.41;4320145;33;20406;-88
2023/07/17 07:09:39;;;;;;;0.47;0.45;;;;;;;33.90;60.98;99637.97;4320003;33;20143;-88
2023/07/17 07:12:05;;;;;;;0.90;0.90;;;;;;;33.94;60.98;99641.09;4320230;33;20146;-88
2023/07/17 07:14:30;;;;;;;0.35;0.35;;;;;;;34.01;60.98;99644.63;4332328;33;20100;-88
2023/07/17 07:16:56;;;;;;;0.80;0.77;;;;;;;34.31;61.00;99637.88;4331888;33;23454;-88
2023/07/17 07:19:21;;;;;;;0.95;0.60;;;;;;;34.33;61.00;99640.38;4308012;33;20131;-88
2023/07/17 07:21:47;;;;;;;2.90;1.10;;;;;;;34.30;61.00;99635.34;4331770;33;26346;-88
2023/07/17 07:24:13;;;;;;;0.80;0.80;;;;;;;34.32;61.00;99636.84;4332901;33;29766;-89
2023/07/17 07:26:39;;;;;;;0.25;0.25;;;;;;;34.39;61.00;99637.69;4332214;33;20123;-89
2023/07/17 07:29:04;;;;;;;0.32;0.32;;;;;;;34.57;61.01;99631.69;4332616;33;20111;-89
2023/07/17 07:31:30;;;;;;;0.73;0.55;;;;;;;34.66;61.01;99627.75;4332725;33;20167;-90
2023/07/17 07:33:55;;;;;;;0.77;0.60;;;;;;;35.04;61.03;99625.25;4320735;33;26746;-90
2023/07/17 07:36:22;;;;;;;0.20;0.20;;;;;;;34.92;61.02;99626.91;4326622;33;20087;-89
2023/07/17 07:38:47;;;;;;;0.98;0.98;;;;;;;34.91;61.02;99625.25;4339875;33;20454;-90
2023/07/17 07:41:13;;;;;;;0.62;0.62;;;;;;;34.63;61.02;99628.16;4331734;33;20100;-90
2023/07/17 07:43:38;;;;;;;0.20;0.20;;;;;;;34.84;61.02;99624.44;4333169;33;20147;-90
2023/07/17 07:46:04;;;;;;;0.52;0.52;;;;;;;35.18;61.05;99627.91;4307462;33;20412;-90
2023/07/17 07:48:31;;;;;;;5.03;0.88;;;;;;;34.91;61.02;99627.97;4319392;33;20434;-90
2023/07/17 07:50:56;;;;;;;0.40;0.40;;;;;;;35.03;61.04;99622.75;4332957;33;20171;-90
2023/07/17 07:53:22;;;;;;;0.20;0.20;;;;;;;35.16;61.04;99625.44;4307297;33;20554;-90
2023/07/17 07:55:47;;;;;;;0.82;0.80;;;;;;;35.26;61.05;99631.25;4319005;33;22175;-90
2023/07/17 07:58:13;;;;;;;0.55;0.50;;;;;;;35.42;61.04;99619.16;4318730;33;29873;-90
2023/07/17 08:00:38;;;;;;;0.47;0.43;;;;;;;35.43;61.06;99620.81;4319210;33;20192;-90
2023/07/17 08:03:04;;;;;;;1.55;1.20;;;;;;;35.47;61.05;99627.44;4319204;33;20160;-90
2023/07/17 08:05:29;;;;;;;0.50;0.50;;;;;;;35.58;61.07;99634.94;4319293;33;20396;-90
2023/07/17 08:07:54;;;;;;;0.77;0.73;;;;;;;35.76;61.07;99628.81;4332466;33;20116;-91
2023/07/17 08:10:20;;;;;;;1.02;0.43;;;;;;;35.94;61.08;99628.94;4331782;33;20126;-91
2023/07/17 08:12:45;;;;;;;2.12;1.10;;;;;;;36.10;61.09;99624.09;4321254;33;20100;-91
2023/07/17 08:15:11;;;;;;;0.47;0.47;;;;;;;36.00;61.08;99631.88;4321141;33;22105;-91
2023/07/17 08:17:36;;;;;;;0.40;0.35;;;;;;;36.10;61.09;99624.91;4321554;33;20163;-91
2023/07/17 08:20:04;;;;;;;0.65;0.65;;;;;;;36.49;61.11;99620.31;4321410;33;20127;-92
2023/07/17 08:22:29;;;;;;;0.20;0.20;;;;;;;36.50;61.11;99616.56;4309508;33;20128;-92
2023/07/17 08:24:54;;;;;;;0.40;0.40;;;;;;;36.50;61.11;99617.38;4309354;33;20471;-92
2023/07/17 08:27:20;;;;;;;0.80;0.80;;;;;;;36.54;61.10;99621.31;4321119;33;20105;-92
2023/07/17 08:29:45;;;;;;;0.57;0.57;;;;;;;36.58;61.11;99611.66;4333478;33;20172;-92
2023/07/17 08:32:11;;;;;;;1.80;1.20;;;;;;;36.68;61.12;99618.50;4321113;33;20473;-92
2023/07/17 08:34:36;;;;;;;0.55;0.50;;;;;;;36.80;61.13;99617.56;4321400;33;20091;-92
2023/07/17 08:37:02;;;;;;;1.15;0.88;;;;;;;37.15;61.14;99620.59;4333725;33;20109;-92
2023/07/17 08:39:27;;;;;;;0.95;0.85;;;;;;;37.33;61.15;99617.06;4321233;33;20441;-92
2023/07/17 08:41:53;;;;;;;1.15;1.05;;;;;;;37.15;61.14;99619.75;4321609;33;20167;-92
2023/07/17 08:44:18;;;;;;;3.92;1.87;;;;;;;37.05;61.14;99630.28;4333834;33;20363;-92
2023/07/17 08:46:46;;;;;;;0.20;0.20;;;;;;;36.93;61.13;99626.66;4333748;33;20429;-92
2023/07/17 08:49:12;;;;;;;0.30;0.30;;;;;;;37.12;61.13;99631.03;4321781;33;20112;-92
2023/07/17 08:51:37;;;;;;;0.68;0.68;;;;;;;37.24;61.14;99623.81;4321557;33;20131;-93
2023/07/17 08:54:05;;;;;;;0.40;0.40;;;;;;;37.57;61.16;99615.31;4332938;33;25921;-92
2023/07/17 08:56:31;;;;;;;0.50;0.50;;;;;;;37.84;61.17;99623.16;4321664;33;20162;-93
2023/07/17 08:58:57;;;;;;;0.32;0.32;;;;;;;37.90;61.18;99617.66;4309264;33;20155;-93
2023/07/17 09:01:22;;;;;;;0.85;0.85;;;;;;;37.80;61.17;99625.50;4309637;33;20124;-93
2023/07/17 09:03:49;;;;;;;0.70;0.70;;;;;;;37.48;61.16;99624.84;4309738;33;20107;-92
2023/07/17 09:06:14;;;;;;;0.73;0.73;;;;;;;37.42;61.15;99626.56;4311170;33;20122;-93
2023/07/17 09:08:40;;;;;;;0.50;0.50;;;;;;;37.60;61.15;99622.16;4318932;33;20096;-92
2023/07/17 09:11:08;;;;;;;1.75;1.58;;;;;;;37.41;61.16;99622.19;4313608;33;20139;-93
2023/07/17 09:13:41;;;;;;;1.03;0.93;;;;;;;37.57;61.16;99620.75;4321958;33;20110;-93
2023/07/17 09:16:17;;;;;;;0.52;0.50;;;;;;;37.79;61.17;99621.13;4321376;33;20173;-94
2023/07/17 09:18:42;;;;;;;1.45;1.35;;;;;;;38.02;61.19;99626.66;4334134;33;20134;-93
2023/07/17 09:21:10;;;;;;;0.85;0.75;;;;;;;38.17;61.20;99617.25;4321351;33;20362;-94
2023/07/17 09:23:39;;;;;;;0.35;0.35;;;;;;;38.29;61.20;99604.53;4320204;33;20166;-94
2023/07/17 09:26:05;;;;;;;1.98;0.82;;;;;;;38.48;61.20;99610.75;4320912;33;20112;-93
2023/07/17 09:28:30;;;;;;;0.50;0.50;;;;;;;38.23;61.19;99606.31;4308772;33;20182;-93
2023/07/17 09:31:00;;;;;;;0.80;0.80;;;;;;;38.24;61.19;99609.88;4321356;33;20437;-93
2023/07/17 09:33:26;;;;;;;0.80;0.75;;;;;;;38.20;61.19;99612.22;4321210;33;20091;-93
2023/07/17 09:35:57;;;;;;;0.60;0.60;;;;;;;38.21;61.20;99604.91;4320838;33;20163;-93
2023/07/17 09:38:26;;;;;;;2.50;1.40;;;;;;;38.57;61.21;99606.63;4321825;33;20138;-94
2023/07/17 09:40:51;;;;;;;1.30;1.00;;;;;;;38.88;61.22;99616.38;4309020;33;20155;-94
2023/07/17 09:43:46;;;;;;;0.85;0.70;;;;;;;39.01;61.23;99607.94;4308668;33;20232;-94
2023/07/17 09:46:12;;;;;;;0.52;0.52;;;;;;;39.28;61.24;99603.72;4320849;33;20475;-94
2023/07/17 09:48:37;;;;;;;1.35;1.02;;;;;;;39.13;61.23;99606.09;4308951;33;20108;-94
2023/07/17 09:51:03;;;;;;;1.87;0.70;;;;;;;39.28;61.24;99595.53;4308316;33;22561;-94
2023/07/17 09:53:28;;;;;;;0.57;0.57;;;;;;;39.46;61.25;99596.44;4308897;33;20501;-94
2023/07/17 09:55:53;;;;;;;0.85;0.75;;;;;;;39.41;61.25;99596.34;4320901;33;20080;-94
2023/07/17 09:58:19;;;;;;;0.20;0.20;;;;;;;39.08;61.23;99603.25;4321757;33;20131;-94
2023/07/17 10:00:44;;;;;;;0.98;0.75;;;;;;;39.11;61.23;99597.34;4321052;33;20119;-93
2023/07/17 10:03:10;;;;;;;0.68;0.68;;;;;;;39.06;61.23;99594.47;4308189;33;24186;-94
2023/07/17 10:05:37;;;;;;;0.30;0.30;;;;;;;38.93;61.23;99592.81;4320848;33;20088;-93
2023/07/17 10:08:06;;;;;;;0.90;0.75;;;;;;;38.92;61.23;99587.63;4320716;33;20177;-94
2023/07/17 10:10:32;;;;;;;0.75;0.75;;;;;;;38.94;61.23;99585.47;4321028;33;20488;-93
2023/07/17 10:12:57;;;;;;;3.00;1.85;;;;;;;39.25;61.25;99590.56;4321545;33;20083;-93
2023/07/17 10:15:23;;;;;;;0.60;0.60;;;;;;;38.99;61.23;99580.97;4321533;33;20163;-93
2023/07/17 10:17:58;;;;;;;0.65;0.62;;;;;;;39.01;61.23;99580.72;4320834;33;20154;-94
2023/07/17 10:20:24;;;;;;;0.62;0.62;;;;;;;39.19;61.24;99586.06;4320175;33;26069;-94
2023/07/17 10:22:50;;;;;;;0.70;0.62;;;;;;;39.28;61.24;99584.66;4333144;33;20091;-94
2023/07/17 10:25:18;;;;;;;1.55;0.75;;;;;;;39.44;61.25;99584.94;4321035;33;20184;-94
2023/07/17 10:27:56;;;;;;;2.58;1.20;;;;;;;39.57;61.26;99584.72;4320725;33;20112;-93
2023/07/17 10:30:27;;;;;;;1.00;1.00;;;;;;;39.51;61.26;99574.75;4308696;33;20199;-93
2023/07/17 10:33:01;;;;;;;0.60;0.50;;;;;;;39.53;61.25;99569.94;4308625;33;20130;-93
2023/07/17 10:35:28;;;;;;;0.90;0.90;;;;;;;39.52;61.25;99569.09;4334768;33;20162;-94
2023/07/17 10:38:08;;;;;;;0.75;0.75;;;;;;;39.54;61.25;99561.50;4310306;33;20134;-93
2023/07/17 10:40:34;;;;;;;0.60;0.60;;;;;;;39.42;61.25;99560.69;4319226;33;20131;-92
2023/07/17 10:43:15;;;;;;;1.02;0.90;;;;;;;39.22;61.24;99558.37;4325455;33;20117;-93
2023/07/17 10:45:40;;;;;;;0.70;0.70;;;;;;;39.17;61.24;99555.53;4320805;33;20680;-94
2023/07/17 10:48:08;;;;;;;0.62;0.62;;;;;;;39.13;61.24;99550.81;4320518;33;20170;-94
2023/07/17 10:50:34;;;;;;;0.85;0.85;;;;;;;38.97;61.23;99560.50;4308697;33;20177;-93
2023/07/17 10:53:05;;;;;;;0.85;0.85;;;;;;;38.48;61.21;99557.16;4308746;33;20115;-94
2023/07/17 10:55:32;;;;;;;0.77;0.77;;;;;;;38.44;61.20;99550.56;4320628;33;20414;-93
2023/07/17 10:57:58;;;;;;;0.77;0.77;;;;;;;38.31;61.20;99559.75;4307933;33;20115;-94
2023/07/17 11:00:24;;;;;;;0.55;0.52;;;;;;;38.32;61.19;99561.41;4308359;33;20110;-94
2023/07/17 11:02:49;;;;;;;0.20;0.20;;;;;;;38.26;61.20;99558.78;4308254;33;20200;-94
2023/07/17 11:05:15;;;;;;;1.17;0.65;;;;;;;38.29;61.20;99556.44;4320465;33;20147;-94
2023/07/17 11:07:40;;;;;;;2.00;0.80;;;;;;;38.29;61.21;99558.31;4308275;33;20107;-93
2023/07/17 11:10:12;;;;;;;1.45;1.35;;;;;;;38.50;61.22;99551.50;4308111;33;20393;-95
2023/07/17 11:12:41;;;;;;;1.20;1.10;;;;;;;38.47;61.21;99547.34;4310282;33;20122;-93
2023/07/17 11:15:16;;;;;;;0.45;0.45;;;;;;;38.37;61.20;99547.97;4308265;33;20151;-94
2023/07/17 11:17:42;;;;;;;1.00;0.95;;;;;;;38.18;61.20;99538.22;4320234;33;20180;-94
2023/07/17 11:20:08;;;;;;;0.70;0.70;;;;;;;38.00;61.18;99536.37;4308012;33;20115;-93
2023/07/17 11:22:33;;;;;;;17.23;1.40;;;;;;;38.32;61.20;99539.66;4307552;33;20119;-94
2023/07/17 11:24:59;;;;;;;1.30;0.95;;;;;;;38.39;61.20;99526.78;4320363;33;20088;-94
2023/07/17 11:27:25;;;;;;;0.37;0.37;;;;;;;38.43;61.21;99521.72;4320042;33;20473;-94
2023/07/17 11:29:50;;;;;;;1.33;0.85;;;;;;;38.55;61.20;99517.06;4307810;33;20112;-93